Aviation Digital Data Service (ADDS)

Output produced by METARs form (2139 UTC 15 December 2017)
found at http://www.aviationweather.gov/adds/metars/
 
EDDR 152120Z 22008KT 9000 -RA FEW002 BKN008 02/01 Q0999 RERA NOSIG
TAF EDDR 151700Z 1518/1618 20005KT 9999 SCT008 BKN025 
     TEMPO 1518/1608 2500 -RASN BKN004 
     BECMG 1603/1606 28008KT 
     TEMPO 1608/1618 4000 SHRASN BKN008 SCT020CB
       
ETAR 152107Z 00000KT 9999 SCT013 OVC020 04/03 A2952 RMK AO2A RAE2056 CIG 016V020 SLP009 $
TAF AMD ETAR 152003Z 1520/1624 23009KT 9999 BKN015 610309 611206 QNH2947INS 
     TEMPO 1520/1600 6000 -RASN BKN030 
     BECMG 1602/1603 36006KT 9999 BKN020 610309 611206 QNH2965INS 
     BECMG 1608/1609 28009KT 9999 SCT025 BKN030 610309 611206 QNH2982INS TX05/1612Z TNM00/1604Z